»·PEaware :: N505Z KSBA-KBUR

N505Z :: KSBA-KBUR

FLIGHT INFORMATION

Flight Status: Arrived
Operator: Privately registered:
United States
More flights under this callsign
Pilot: Glen R. (20150)
Aircraft: Unknown
(M20K)
More flights by this aircraft type
Origin: KSBA Santa Barbara Mun
United States
Destination: KBUR Bob Hope-Burbank
United States
More flights between these airports :: More routes between these airports
Route: +
File this flight plan on PilotEdge
Remarks:
Altitude:
(Current/Filed)
7,500ft
Speed:
(Current/Filed)
0kts
Departed: 27-Sep-18 05:53 PM
Arrived: 27-Sep-18 06:35 PM
Distance/Time
Traveled:
75nm/0:41
Distance/Time
To Go:
Arrived

Flight Plot

Page will automatically refresh every two minutes.


Map Options




Map Legend


Flown Route
Filed Route
Departure Airport
Arrival Airport
Navaid (VOR, NDB)
Fix

Horizontal Profiles

Position Reports

Time Latitude Longitude Heading Altitude Ground
Speed
27-Sep-18 17:46 34.422704 -119.835893 268 15ft 0kts
27-Sep-18 17:47 34.422704 -119.835893 268 15ft 0kts
27-Sep-18 17:48 34.422704 -119.835893 268 15ft 0kts
27-Sep-18 17:49 34.422704 -119.835893 268 15ft 0kts
27-Sep-18 17:50 34.423236 -119.837194 328 15ft 17kts
27-Sep-18 17:51 34.426140 -119.838187 345 15ft 18kts
27-Sep-18 17:52 34.428769 -119.838993 345 15ft 19kts
27-Sep-18 17:53 34.430396 -119.839526 314 15ft 0kts
27-Sep-18 17:54 34.430414 -119.840165 208 15ft 13kts
27-Sep-18 17:55 34.418043 -119.835411 152 262ft 93kts
27-Sep-18 17:56 34.398948 -119.820131 137 1163ft 95kts
27-Sep-18 17:57 34.376621 -119.810390 166 1464ft 103kts
27-Sep-18 17:58 34.359582 -119.793100 102 1975ft 106kts
27-Sep-18 17:59 34.354310 -119.763015 101 2938ft 115kts
27-Sep-18 18:00 34.342575 -119.732405 100 3875ft 126kts
27-Sep-18 18:01 34.347620 -119.701575 72 4841ft 126kts
27-Sep-18 18:02 34.355631 -119.671555 76 5712ft 131kts
27-Sep-18 18:03 34.362055 -119.642328 73 6566ft 132kts
27-Sep-18 18:04 34.369823 -119.613109 73 7390ft 135kts
27-Sep-18 18:05 34.375715 -119.578382 97 7414ft 184kts
27-Sep-18 18:06 34.369639 -119.534623 95 7660ft 189kts
27-Sep-18 18:07 34.365480 -119.487149 93 7590ft 201kts
27-Sep-18 18:08 34.363445 -119.439994 90 7476ft 205kts
27-Sep-18 18:09 34.364226 -119.394418 86 7433ft 205kts
27-Sep-18 18:10 34.366014 -119.350790 92 7503ft 203kts
27-Sep-18 18:11 34.361294 -119.307726 99 7556ft 202kts
27-Sep-18 18:12 34.353719 -119.263748 103 7567ft 202kts
27-Sep-18 18:13 34.346944 -119.220790 100 7537ft 203kts
27-Sep-18 18:14 34.339735 -119.178472 102 7545ft 203kts
27-Sep-18 18:15 34.331350 -119.135303 104 7498ft 204kts
27-Sep-18 18:16 34.323320 -119.093346 102 7519ft 203kts
27-Sep-18 18:17 34.315663 -119.052278 103 7516ft 203kts
27-Sep-18 18:18 34.307201 -119.011252 104 7585ft 199kts
27-Sep-18 18:19 34.298588 -118.970673 104 7568ft 202kts
27-Sep-18 18:20 34.290101 -118.929529 102 7581ft 203kts
27-Sep-18 18:21 34.283574 -118.888332 98 7418ft 211kts
27-Sep-18 18:22 34.276648 -118.847514 104 6483ft 205kts
27-Sep-18 18:23 34.267552 -118.808952 104 5665ft 197kts
27-Sep-18 18:24 34.260589 -118.768314 100 5490ft 201kts
27-Sep-18 18:25 34.254114 -118.728223 99 5443ft 204kts
27-Sep-18 18:26 34.246666 -118.685826 104 5044ft 214kts
27-Sep-18 18:27 34.239723 -118.643339 100 4258ft 206kts
27-Sep-18 18:28 34.233472 -118.604572 101 3553ft 193kts
27-Sep-18 18:29 34.227334 -118.567060 100 3507ft 194kts
27-Sep-18 18:30 34.221515 -118.532295 101 2990ft 180kts
27-Sep-18 18:31 34.216787 -118.500002 97 3417ft 172kts
27-Sep-18 18:32 34.214144 -118.468084 93 3539ft 182kts
27-Sep-18 18:33 34.212641 -118.434203 95 3410ft 169kts
27-Sep-18 18:34 34.204716 -118.408270 118 2573ft 132kts
27-Sep-18 18:35 34.198729 -118.388461 89 1633ft 103kts
27-Sep-18 18:36 34.198026 -118.371081 91 836ft 84kts
27-Sep-18 18:37 34.197797 -118.361092 89 779ft 18kts
27-Sep-18 18:38 34.198914 -118.359630 87 779ft 13kts

Navigation Log

Ident Type
Flight plan parsing failed, navigation log unavailable